Main page
METAR-TAF:

METAR-TAF

Airports :

Alderney,

Alderney Airport

latitude: 49-43N, longitude: 002-12W, elevation: 71 m

Current weather observation

The report was made 8 hours and 30 minutes ago, at 17:50 UTC
Wind 13 kt from the Northwest
Temperature 7°C
Pressure 1022 hPa
Visibility 10 km or more
Broken clouds at a height of 2600 ft
rain showers

METAR: EGJA 161750Z 31013KT 9999 SHRA BKN026 07/// Q1022

Time: 02:20 (02:20 UTC)

Forecast

The report was made 12 hours and 20 minutes ago, at 14:00 UTC
Forecast valid from 16 at 15 UTC to 16 at 19 UTC
Wind 12 kt from the North/Northwest
Visibility 10 km or more
Few clouds at a height of 2800 ft
Probability 30% :
Temporary
from 16 at 18 UTC to 16 at 24 UTC
Visibility: 5000 m
Broken clouds at a height of 2000 ft, Cumulonimbus.
rain showers

TAF: EGJA 161400Z 1615/1619 33012KT 9999 FEW028 PROB30 TEMPO 1618/1624 5000 SHRA BKN020CB

Weather observations and forecasts of more than 4000 airports (METAR and TAF reports).

The available stations are represented by yellow and red dots on the map.

Hover mouse over dot to see the name of the station.

Then click to see weather observations and forecasts.

To change the map : click on the green buttons with a black cross to zoom in, on the green button with a dash to zoom out, or on the green arrows for adjacent maps.


METAR-TAF: